sensor_id;sensor_type;location;lat;lon;timestamp;pressure;altitude;pressure_sealevel;temperature;humidity
31121;BME280;17770;45.966;13.632;2022-09-09T00:04:35;100250.94;;;27.29;52.57
31121;BME280;17770;45.966;13.632;2022-09-09T00:12:40;100245.75;;;27.27;52.51
31121;BME280;17770;45.966;13.632;2022-09-09T00:15:14;100238.66;;;27.28;52.24
31121;BME280;17770;45.966;13.632;2022-09-09T00:22:40;100223.06;;;27.25;52.30
31121;BME280;17770;45.966;13.632;2022-09-09T00:25:10;100237.00;;;27.27;52.14
31121;BME280;17770;45.966;13.632;2022-09-09T00:27:48;100236.31;;;27.25;52.51
31121;BME280;17770;45.966;13.632;2022-09-09T00:32:49;100240.75;;;27.24;52.46
31121;BME280;17770;45.966;13.632;2022-09-09T00:37:44;100243.41;;;27.24;52.11
31121;BME280;17770;45.966;13.632;2022-09-09T00:40:16;100232.13;;;27.22;52.10
31121;BME280;17770;45.966;13.632;2022-09-09T00:42:43;100239.28;;;27.22;52.01
31121;BME280;17770;45.966;13.632;2022-09-09T00:47:46;100226.19;;;27.20;51.89
31121;BME280;17770;45.966;13.632;2022-09-09T00:55:28;100225.50;;;27.18;52.24
31121;BME280;17770;45.966;13.632;2022-09-09T00:57:57;100229.16;;;27.17;52.06
31121;BME280;17770;45.966;13.632;2022-09-09T01:00:31;100226.63;;;27.16;51.86
31121;BME280;17770;45.966;13.632;2022-09-09T01:08:22;100227.09;;;27.11;52.11
31121;BME280;17770;45.966;13.632;2022-09-09T01:10:53;100227.94;;;27.12;51.93
31121;BME280;17770;45.966;13.632;2022-09-09T01:13:41;100231.53;;;27.11;52.14
31121;BME280;17770;45.966;13.632;2022-09-09T01:16:09;100223.91;;;27.08;52.06
31121;BME280;17770;45.966;13.632;2022-09-09T01:18:40;100231.69;;;27.09;51.66
31121;BME280;17770;45.966;13.632;2022-09-09T01:24:01;100221.25;;;27.08;51.97
31121;BME280;17770;45.966;13.632;2022-09-09T01:26:37;100223.09;;;27.07;51.98
31121;BME280;17770;45.966;13.632;2022-09-09T01:29:10;100220.72;;;27.04;51.67
31121;BME280;17770;45.966;13.632;2022-09-09T01:31:40;100233.69;;;27.07;51.53
31121;BME280;17770;45.966;13.632;2022-09-09T01:34:11;100228.41;;;27.07;51.87
31121;BME280;17770;45.966;13.632;2022-09-09T01:36:40;100224.06;;;27.06;51.99
31121;BME280;17770;45.966;13.632;2022-09-09T01:39:08;100217.28;;;27.04;51.44
31121;BME280;17770;45.966;13.632;2022-09-09T01:41:35;100208.34;;;27.05;51.57
31121;BME280;17770;45.966;13.632;2022-09-09T01:44:04;100216.13;;;27.06;51.71
31121;BME280;17770;45.966;13.632;2022-09-09T01:46:33;100211.13;;;27.03;51.44
31121;BME280;17770;45.966;13.632;2022-09-09T01:49:00;100207.50;;;27.04;51.58
31121;BME280;17770;45.966;13.632;2022-09-09T01:51:28;100212.13;;;27.02;51.41
31121;BME280;17770;45.966;13.632;2022-09-09T01:53:54;100205.00;;;27.03;51.38
31121;BME280;17770;45.966;13.632;2022-09-09T01:56:25;100205.31;;;27.00;51.53
31121;BME280;17770;45.966;13.632;2022-09-09T01:59:08;100200.19;;;26.98;51.86
31121;BME280;17770;45.966;13.632;2022-09-09T02:04:03;100204.47;;;26.99;51.41
31121;BME280;17770;45.966;13.632;2022-09-09T02:06:34;100208.81;;;27.00;51.40
31121;BME280;17770;45.966;13.632;2022-09-09T02:09:11;100199.19;;;26.99;51.78
31121;BME280;17770;45.966;13.632;2022-09-09T02:11:39;100201.97;;;26.98;51.25
31121;BME280;17770;45.966;13.632;2022-09-09T02:14:22;100203.81;;;26.97;51.45
31121;BME280;17770;45.966;13.632;2022-09-09T02:16:51;100203.81;;;26.97;51.60
31121;BME280;17770;45.966;13.632;2022-09-09T02:19:25;100200.19;;;26.98;51.12
31121;BME280;17770;45.966;13.632;2022-09-09T02:22:00;100197.22;;;27.01;50.96
31121;BME280;17770;45.966;13.632;2022-09-09T02:24:28;100205.16;;;27.01;51.29
31121;BME280;17770;45.966;13.632;2022-09-09T02:27:08;100201.03;;;26.99;51.33
31121;BME280;17770;45.966;13.632;2022-09-09T02:29:38;100200.03;;;27.00;51.36
31121;BME280;17770;45.966;13.632;2022-09-09T02:32:08;100207.97;;;27.00;51.35
31121;BME280;17770;45.966;13.632;2022-09-09T02:34:39;100206.16;;;27.00;51.03
31121;BME280;17770;45.966;13.632;2022-09-09T02:37:07;100211.44;;;27.00;51.70
31121;BME280;17770;45.966;13.632;2022-09-09T02:39:35;100211.63;;;26.99;51.26
31121;BME280;17770;45.966;13.632;2022-09-09T02:42:03;100213.25;;;27.00;51.34
31121;BME280;17770;45.966;13.632;2022-09-09T02:44:31;100210.63;;;27.00;51.39
31121;BME280;17770;45.966;13.632;2022-09-09T02:54:27;100186.09;;;26.98;51.28
31121;BME280;17770;45.966;13.632;2022-09-09T02:57:00;100180.66;;;26.99;51.40
31121;BME280;17770;45.966;13.632;2022-09-09T02:59:33;100185.28;;;26.97;52.02
31121;BME280;17770;45.966;13.632;2022-09-09T03:01:59;100179.16;;;26.97;51.87
31121;BME280;17770;45.966;13.632;2022-09-09T03:04:27;100176.81;;;26.93;51.98
31121;BME280;17770;45.966;13.632;2022-09-09T03:06:53;100174.16;;;26.93;51.74
31121;BME280;17770;45.966;13.632;2022-09-09T03:09:20;100174.16;;;26.93;51.77
31121;BME280;17770;45.966;13.632;2022-09-09T03:11:46;100168.72;;;26.95;52.10
31121;BME280;17770;45.966;13.632;2022-09-09T03:14:14;100178.47;;;26.94;52.11
31121;BME280;17770;45.966;13.632;2022-09-09T03:16:40;100177.63;;;26.94;51.85
31121;BME280;17770;45.966;13.632;2022-09-09T03:19:07;100170.69;;;26.93;52.12
31121;BME280;17770;45.966;13.632;2022-09-09T03:21:33;100175.13;;;26.92;51.67
31121;BME280;17770;45.966;13.632;2022-09-09T03:23:59;100169.84;;;26.92;51.43
31121;BME280;17770;45.966;13.632;2022-09-09T03:26:25;100171.53;;;26.93;51.41
31121;BME280;17770;45.966;13.632;2022-09-09T03:28:51;100178.47;;;26.94;51.37
31121;BME280;17770;45.966;13.632;2022-09-09T03:31:20;100190.88;;;26.94;51.77
31121;BME280;17770;45.966;13.632;2022-09-09T03:33:46;100182.91;;;26.94;51.88
31121;BME280;17770;45.966;13.632;2022-09-09T03:36:15;100177.94;;;26.91;51.17
31121;BME280;17770;45.966;13.632;2022-09-09T03:38:41;100176.97;;;26.92;51.93
31121;BME280;17770;45.966;13.632;2022-09-09T03:41:07;100181.44;;;26.91;51.64
31121;BME280;17770;45.966;13.632;2022-09-09T03:43:34;100173.63;;;26.90;51.63
31121;BME280;17770;45.966;13.632;2022-09-09T03:46:00;100178.94;;;26.90;51.36
31121;BME280;17770;45.966;13.632;2022-09-09T03:48:26;100186.72;;;26.91;51.94
31121;BME280;17770;45.966;13.632;2022-09-09T03:50:54;100178.09;;;26.89;51.84
31121;BME280;17770;45.966;13.632;2022-09-09T03:53:22;100177.28;;;26.89;51.84
31121;BME280;17770;45.966;13.632;2022-09-09T03:55:49;100181.75;;;26.88;51.62
31121;BME280;17770;45.966;13.632;2022-09-09T03:58:18;100189.69;;;26.88;51.44
31121;BME280;17770;45.966;13.632;2022-09-09T04:00:56;100175.44;;;26.89;51.40
31121;BME280;17770;45.966;13.632;2022-09-09T04:03:23;100182.59;;;26.89;51.39
31121;BME280;17770;45.966;13.632;2022-09-09T04:05:53;100171.16;;;26.88;51.52
31121;BME280;17770;45.966;13.632;2022-09-09T04:08:20;100176.44;;;26.88;51.53
31121;BME280;17770;45.966;13.632;2022-09-09T04:10:48;100166.81;;;26.87;51.35
31121;BME280;17770;45.966;13.632;2022-09-09T04:13:15;100169.63;;;26.86;51.39
31121;BME280;17770;45.966;13.632;2022-09-09T04:15:44;100171.63;;;26.84;51.45
31121;BME280;17770;45.966;13.632;2022-09-09T04:18:15;100161.03;;;26.84;51.18
31121;BME280;17770;45.966;13.632;2022-09-09T04:20:41;100164.66;;;26.83;51.05
31121;BME280;17770;45.966;13.632;2022-09-09T04:23:09;100168.97;;;26.84;51.29
31121;BME280;17770;45.966;13.632;2022-09-09T04:25:35;100160.03;;;26.85;51.47
31121;BME280;17770;45.966;13.632;2022-09-09T04:28:00;100171.47;;;26.85;51.41
31121;BME280;17770;45.966;13.632;2022-09-09T04:30:27;100160.19;;;26.83;51.42
31121;BME280;17770;45.966;13.632;2022-09-09T04:32:53;100166.31;;;26.84;51.64
31121;BME280;17770;45.966;13.632;2022-09-09T04:35:19;100161.16;;;26.82;51.66
31121;BME280;17770;45.966;13.632;2022-09-09T04:37:46;100176.22;;;26.82;51.54
31121;BME280;17770;45.966;13.632;2022-09-09T04:40:12;100165.63;;;26.82;51.86
31121;BME280;17770;45.966;13.632;2022-09-09T04:42:38;100162.31;;;26.80;51.94
31121;BME280;17770;45.966;13.632;2022-09-09T04:45:05;100168.44;;;26.80;51.71
31121;BME280;17770;45.966;13.632;2022-09-09T04:47:32;100170.25;;;26.80;51.80
31121;BME280;17770;45.966;13.632;2022-09-09T04:49:58;100168.59;;;26.79;51.59
31121;BME280;17770;45.966;13.632;2022-09-09T04:52:25;100158.97;;;26.78;51.87
31121;BME280;17770;45.966;13.632;2022-09-09T04:54:50;100157.00;;;26.80;51.97
31121;BME280;17770;45.966;13.632;2022-09-09T04:57:17;100153.53;;;26.79;51.92
31121;BME280;17770;45.966;13.632;2022-09-09T04:59:42;100154.53;;;26.78;52.07
31121;BME280;17770;45.966;13.632;2022-09-09T05:02:09;100154.53;;;26.78;51.97
31121;BME280;17770;45.966;13.632;2022-09-09T05:04:34;100158.16;;;26.77;52.27
31121;BME280;17770;45.966;13.632;2022-09-09T05:07:01;100164.28;;;26.78;52.33
31121;BME280;17770;45.966;13.632;2022-09-09T05:09:27;100163.31;;;26.79;52.21
31121;BME280;17770;45.966;13.632;2022-09-09T05:11:53;100153.69;;;26.78;52.41
31121;BME280;17770;45.966;13.632;2022-09-09T05:14:30;100150.22;;;26.77;52.13
31121;BME280;17770;45.966;13.632;2022-09-09T05:16:59;100156.47;;;26.76;52.02
31121;BME280;17770;45.966;13.632;2022-09-09T05:19:25;100154.69;;;26.77;52.40
31121;BME280;17770;45.966;13.632;2022-09-09T05:21:52;100153.00;;;26.76;52.19
31121;BME280;17770;45.966;13.632;2022-09-09T05:24:23;100157.31;;;26.77;52.38
31121;BME280;17770;45.966;13.632;2022-09-09T05:26:51;100147.59;;;26.77;52.67
31121;BME280;17770;45.966;13.632;2022-09-09T05:29:17;100145.91;;;26.76;52.56
31121;BME280;17770;45.966;13.632;2022-09-09T05:31:45;100152.03;;;26.77;52.44
31121;BME280;17770;45.966;13.632;2022-09-09T05:34:14;100153.00;;;26.76;52.30
31121;BME280;17770;45.966;13.632;2022-09-09T05:36:40;100154.69;;;26.77;52.26
31121;BME280;17770;45.966;13.632;2022-09-09T05:39:06;100147.69;;;26.76;52.24
31121;BME280;17770;45.966;13.632;2022-09-09T05:41:33;100151.19;;;26.76;52.18
31121;BME280;17770;45.966;13.632;2022-09-09T05:44:01;100155.66;;;26.76;52.01
31121;BME280;17770;45.966;13.632;2022-09-09T05:46:30;100160.13;;;26.75;52.40
31121;BME280;17770;45.966;13.632;2022-09-09T05:48:56;100165.28;;;26.77;52.45
31121;BME280;17770;45.966;13.632;2022-09-09T05:51:30;100175.84;;;26.77;52.32
31121;BME280;17770;45.966;13.632;2022-09-09T05:53:57;100188.09;;;26.78;52.29
31121;BME280;17770;45.966;13.632;2022-09-09T05:56:29;100171.53;;;26.76;52.56
31121;BME280;17770;45.966;13.632;2022-09-09T05:58:56;100160.94;;;26.76;52.25
31121;BME280;17770;45.966;13.632;2022-09-09T06:01:27;100163.59;;;26.76;52.27
31121;BME280;17770;45.966;13.632;2022-09-09T06:03:54;100167.06;;;26.76;52.63
31121;BME280;17770;45.966;13.632;2022-09-09T06:06:23;100160.94;;;26.76;52.19
31121;BME280;17770;45.966;13.632;2022-09-09T06:08:52;100153.84;;;26.76;51.90
31121;BME280;17770;45.966;13.632;2022-09-09T06:11:23;100150.34;;;26.76;52.62
31121;BME280;17770;45.966;13.632;2022-09-09T06:13:49;100158.44;;;26.74;52.65
31121;BME280;17770;45.966;13.632;2022-09-09T06:16:18;100165.56;;;26.74;52.32
31121;BME280;17770;45.966;13.632;2022-09-09T06:18:44;100169.03;;;26.74;52.30
31121;BME280;17770;45.966;13.632;2022-09-09T06:21:13;100176.16;;;26.74;52.45
31121;BME280;17770;45.966;13.632;2022-09-09T06:23:40;100183.25;;;26.73;52.30
31121;BME280;17770;45.966;13.632;2022-09-09T06:26:10;100188.56;;;26.73;52.36
31121;BME280;17770;45.966;13.632;2022-09-09T06:28:36;100187.72;;;26.73;52.50
31121;BME280;17770;45.966;13.632;2022-09-09T06:31:06;100181.63;;;26.72;52.56
31121;BME280;17770;45.966;13.632;2022-09-09T06:33:33;100169.19;;;26.73;51.44
31121;BME280;17770;45.966;13.632;2022-09-09T06:36:01;100166.38;;;26.74;51.61
31121;BME280;17770;45.966;13.632;2022-09-09T06:38:27;100162.09;;;26.73;51.75
31121;BME280;17770;45.966;13.632;2022-09-09T06:40:54;100165.72;;;26.72;51.75
31121;BME280;17770;45.966;13.632;2022-09-09T06:43:22;100166.69;;;26.71;51.75
31121;BME280;17770;45.966;13.632;2022-09-09T06:46:00;100159.75;;;26.70;51.62
31121;BME280;17770;45.966;13.632;2022-09-09T06:48:27;100163.09;;;26.72;52.54
31121;BME280;17770;45.966;13.632;2022-09-09T06:51:28;100154.31;;;26.72;51.65
31121;BME280;17770;45.966;13.632;2022-09-09T06:53:56;100146.38;;;26.72;52.29
31121;BME280;17770;45.966;13.632;2022-09-09T06:56:30;100154.31;;;26.72;52.42
31121;BME280;17770;45.966;13.632;2022-09-09T06:58:58;100159.59;;;26.72;52.15
31121;BME280;17770;45.966;13.632;2022-09-09T07:01:37;100158.75;;;26.71;52.42
31121;BME280;17770;45.966;13.632;2022-09-09T07:04:05;100161.56;;;26.70;52.96
31121;BME280;17770;45.966;13.632;2022-09-09T07:06:35;100152.63;;;26.71;52.35
31121;BME280;17770;45.966;13.632;2022-09-09T07:09:05;100156.94;;;26.72;51.54
31121;BME280;17770;45.966;13.632;2022-09-09T07:11:33;100155.28;;;26.71;51.60
31121;BME280;17770;45.966;13.632;2022-09-09T07:14:00;100159.75;;;26.70;52.47
31121;BME280;17770;45.966;13.632;2022-09-09T07:16:26;100168.66;;;26.69;52.64
31121;BME280;17770;45.966;13.632;2022-09-09T07:18:59;100175.78;;;26.69;53.17
31121;BME280;17770;45.966;13.632;2022-09-09T07:21:27;100168.81;;;26.68;53.13
31121;BME280;17770;45.966;13.632;2022-09-09T07:23:53;100168.81;;;26.68;53.07
31121;BME280;17770;45.966;13.632;2022-09-09T07:26:21;100177.59;;;26.68;53.33
31121;BME280;17770;45.966;13.632;2022-09-09T07:28:48;100192.47;;;26.69;53.08
31121;BME280;17770;45.966;13.632;2022-09-09T07:31:15;100204.91;;;26.69;53.54
31121;BME280;17770;45.966;13.632;2022-09-09T07:33:42;100210.19;;;26.69;52.81
31121;BME280;17770;45.966;13.632;2022-09-09T07:38:46;100181.09;;;26.69;53.21
31121;BME280;17770;45.966;13.632;2022-09-09T07:41:14;100201.25;;;26.70;53.36
31121;BME280;17770;45.966;13.632;2022-09-09T07:43:41;100198.75;;;26.68;53.29
31121;BME280;17770;45.966;13.632;2022-09-09T07:46:09;100195.28;;;26.68;53.18
31121;BME280;17770;45.966;13.632;2022-09-09T07:48:35;100218.13;;;26.69;53.35
31121;BME280;17770;45.966;13.632;2022-09-09T07:51:09;100228.72;;;26.69;53.41
31121;BME280;17770;45.966;13.632;2022-09-09T07:53:37;100226.88;;;26.69;53.48
31121;BME280;17770;45.966;13.632;2022-09-09T07:56:07;100220.63;;;26.70;52.99
31121;BME280;17770;45.966;13.632;2022-09-09T07:58:36;100225.06;;;26.70;53.16
31121;BME280;17770;45.966;13.632;2022-09-09T08:01:12;100227.72;;;26.70;53.16
31121;BME280;17770;45.966;13.632;2022-09-09T08:03:39;100225.06;;;26.70;53.50
31121;BME280;17770;45.966;13.632;2022-09-09T08:06:06;100226.72;;;26.71;53.29
31121;BME280;17770;45.966;13.632;2022-09-09T08:08:33;100216.16;;;26.71;53.72
31121;BME280;17770;45.966;13.632;2022-09-09T08:11:03;100212.69;;;26.70;53.32
31121;BME280;17770;45.966;13.632;2022-09-09T08:13:29;100198.63;;;26.70;53.64
31121;BME280;17770;45.966;13.632;2022-09-09T08:16:03;100181.88;;;26.69;52.31
31121;BME280;17770;45.966;13.632;2022-09-09T08:18:29;100185.22;;;26.71;51.97
31121;BME280;17770;45.966;13.632;2022-09-09T08:20:55;100186.22;;;26.70;53.01
31121;BME280;17770;45.966;13.632;2022-09-09T08:23:21;100176.44;;;26.71;53.53
31121;BME280;17770;45.966;13.632;2022-09-09T08:25:47;100177.44;;;26.70;53.94
31121;BME280;17770;45.966;13.632;2022-09-09T08:28:14;100188.03;;;26.70;53.81
31121;BME280;17770;45.966;13.632;2022-09-09T08:30:40;100181.88;;;26.69;52.82
31121;BME280;17770;45.966;13.632;2022-09-09T08:33:06;100170.34;;;26.70;53.48
31121;BME280;17770;45.966;13.632;2022-09-09T08:35:33;100170.34;;;26.70;53.58
31121;BME280;17770;45.966;13.632;2022-09-09T08:37:59;100182.56;;;26.71;53.94
31121;BME280;17770;45.966;13.632;2022-09-09T08:40:26;100199.44;;;26.70;52.54
31121;BME280;17770;45.966;13.632;2022-09-09T08:42:55;100189.56;;;26.72;53.70
31121;BME280;17770;45.966;13.632;2022-09-09T08:45:27;100183.41;;;26.72;54.05
31121;BME280;17770;45.966;13.632;2022-09-09T08:50:35;100178.28;;;26.70;52.42
31121;BME280;17770;45.966;13.632;2022-09-09T08:58:27;100178.03;;;26.64;52.72
31121;BME280;17770;45.966;13.632;2022-09-09T09:08:39;100175.00;;;26.59;52.87
31121;BME280;17770;45.966;13.632;2022-09-09T09:11:09;100169.41;;;26.62;53.23
31121;BME280;17770;45.966;13.632;2022-09-09T09:14:36;100176.34;;;26.63;53.38
31121;BME280;17770;45.966;13.632;2022-09-09T09:16:38;100183.31;;;26.64;53.40
31121;BME280;17770;45.966;13.632;2022-09-09T09:19:07;100195.56;;;26.65;53.30
31121;BME280;17770;45.966;13.632;2022-09-09T09:21:37;100209.94;;;26.62;53.48
31121;BME280;17770;45.966;13.632;2022-09-09T09:24:09;100220.38;;;26.64;53.69
31121;BME280;17770;45.966;13.632;2022-09-09T09:26:38;100214.22;;;26.63;53.71
31121;BME280;17770;45.966;13.632;2022-09-09T09:29:10;100224.13;;;26.61;53.93
31121;BME280;17770;45.966;13.632;2022-09-09T09:31:37;100222.47;;;26.60;53.88
31121;BME280;17770;45.966;13.632;2022-09-09T09:34:03;100225.13;;;26.60;54.24
31121;BME280;17770;45.966;13.632;2022-09-09T09:37:15;100217.03;;;26.62;53.74
31121;BME280;17770;45.966;13.632;2022-09-09T09:39:26;100220.38;;;26.64;54.24
31121;BME280;17770;45.966;13.632;2022-09-09T09:41:54;100209.78;;;26.64;53.77
31121;BME280;17770;45.966;13.632;2022-09-09T09:46:53;100204.66;;;26.62;53.93
31121;BME280;17770;45.966;13.632;2022-09-09T09:49:30;100226.47;;;26.64;54.30
31121;BME280;17770;45.966;13.632;2022-09-09T09:52:02;100237.06;;;26.64;53.50
31121;BME280;17770;45.966;13.632;2022-09-09T09:54:33;100241.41;;;26.65;53.61
31121;BME280;17770;45.966;13.632;2022-09-09T09:57:09;100244.06;;;26.65;53.71
31121;BME280;17770;45.966;13.632;2022-09-09T09:59:35;100246.72;;;26.65;53.79
31121;BME280;17770;45.966;13.632;2022-09-09T10:02:22;100248.38;;;26.66;53.66
31121;BME280;17770;45.966;13.632;2022-09-09T10:05:05;100256.31;;;26.66;53.21
31121;BME280;17770;45.966;13.632;2022-09-09T10:07:33;100266.88;;;26.66;53.17
31121;BME280;17770;45.966;13.632;2022-09-09T10:09:59;100285.25;;;26.68;53.50
31121;BME280;17770;45.966;13.632;2022-09-09T10:12:31;100303.09;;;26.66;53.03
31121;BME280;17770;45.966;13.632;2022-09-09T10:23:06;100232.47;;;26.66;53.62
31121;BME280;17770;45.966;13.632;2022-09-09T10:25:58;100221.91;;;26.66;53.58
31121;BME280;17770;45.966;13.632;2022-09-09T10:31:10;100235.25;;;26.65;53.29
31121;BME280;17770;45.966;13.632;2022-09-09T10:33:57;100218.41;;;26.66;53.63
31121;BME280;17770;45.966;13.632;2022-09-09T10:36:26;100207.69;;;26.67;53.69
31121;BME280;17770;45.966;13.632;2022-09-09T10:39:01;100219.63;;;26.71;53.43
31121;BME280;17770;45.966;13.632;2022-09-09T10:56:35;100195.72;;;26.81;53.37
31121;BME280;17770;45.966;13.632;2022-09-09T10:59:04;100191.13;;;26.83;53.39
31121;BME280;17770;45.966;13.632;2022-09-09T11:01:35;100184.84;;;26.84;53.37
31121;BME280;17770;45.966;13.632;2022-09-09T11:04:10;100182.88;;;26.86;53.35
31121;BME280;17770;45.966;13.632;2022-09-09T11:06:39;100184.38;;;26.88;53.14
31121;BME280;17770;45.966;13.632;2022-09-09T11:09:09;100185.22;;;26.89;53.51
31121;BME280;17770;45.966;13.632;2022-09-09T11:11:42;100187.88;;;26.89;52.99
31121;BME280;17770;45.966;13.632;2022-09-09T11:19:13;100180.06;;;26.87;53.60
31121;BME280;17770;45.966;13.632;2022-09-09T11:21:43;100172.81;;;26.89;53.66
31121;BME280;17770;45.966;13.632;2022-09-09T11:24:26;100177.13;;;26.90;53.59
31121;BME280;17770;45.966;13.632;2022-09-09T11:26:55;100170.16;;;26.89;53.42
31121;BME280;17770;45.966;13.632;2022-09-09T11:32:14;100171.84;;;26.90;53.86
31121;BME280;17770;45.966;13.632;2022-09-09T11:35:02;100167.66;;;26.88;54.06
31121;BME280;17770;45.966;13.632;2022-09-09T11:42:46;100164.06;;;26.89;54.06
31121;BME280;17770;45.966;13.632;2022-09-09T11:45:25;100157.75;;;26.90;54.40
31121;BME280;17770;45.966;13.632;2022-09-09T11:47:57;100158.59;;;26.90;53.80
31121;BME280;17770;45.966;13.632;2022-09-09T11:52:49;100156.59;;;26.92;53.95
31121;BME280;17770;45.966;13.632;2022-09-09T11:55:29;100160.94;;;26.93;54.10
31121;BME280;17770;45.966;13.632;2022-09-09T11:57:59;100152.84;;;26.95;53.91
31121;BME280;17770;45.966;13.632;2022-09-09T12:03:01;100154.31;;;26.98;54.00
31121;BME280;17770;45.966;13.632;2022-09-09T12:05:40;100160.31;;;27.00;53.74
31121;BME280;17770;45.966;13.632;2022-09-09T12:08:08;100161.31;;;26.99;53.47
31121;BME280;17770;45.966;13.632;2022-09-09T12:10:35;100151.53;;;26.99;53.65
31121;BME280;17770;45.966;13.632;2022-09-09T12:13:51;100149.88;;;26.98;53.57
31121;BME280;17770;45.966;13.632;2022-09-09T12:18:23;100147.75;;;27.02;53.54
31121;BME280;17770;45.966;13.632;2022-09-09T12:21:16;100143.13;;;27.04;53.44
31121;BME280;17770;45.966;13.632;2022-09-09T12:34:04;100111.56;;;27.10;53.04
31121;BME280;17770;45.966;13.632;2022-09-09T12:36:35;100118.34;;;27.13;53.10
31121;BME280;17770;45.966;13.632;2022-09-09T12:41:59;100106.47;;;27.17;52.96
31121;BME280;17770;45.966;13.632;2022-09-09T12:44:25;100101.00;;;27.18;53.23
31121;BME280;17770;45.966;13.632;2022-09-09T12:46:53;100088.78;;;27.17;53.04
31121;BME280;17770;45.966;13.632;2022-09-09T12:49:41;100081.63;;;27.18;52.91
31121;BME280;17770;45.966;13.632;2022-09-09T12:52:08;100074.53;;;27.18;53.04
31121;BME280;17770;45.966;13.632;2022-09-09T12:54:42;100071.56;;;27.21;52.97
31121;BME280;17770;45.966;13.632;2022-09-09T12:57:12;100072.91;;;27.25;52.65
31121;BME280;17770;45.966;13.632;2022-09-09T12:59:40;100069.25;;;27.26;52.95
31121;BME280;17770;45.966;13.632;2022-09-09T13:02:17;100070.09;;;27.27;52.47
31121;BME280;17770;45.966;13.632;2022-09-09T13:04:43;100076.38;;;27.26;52.82
31121;BME280;17770;45.966;13.632;2022-09-09T13:07:12;100083.50;;;27.25;52.57
31121;BME280;17770;45.966;13.632;2022-09-09T13:09:39;100072.41;;;27.22;52.66
31121;BME280;17770;45.966;13.632;2022-09-09T13:12:05;100067.91;;;27.22;52.41
31121;BME280;17770;45.966;13.632;2022-09-09T13:14:36;100053.19;;;27.20;52.40
31121;BME280;17770;45.966;13.632;2022-09-09T13:17:06;100054.81;;;27.21;52.76
31121;BME280;17770;45.966;13.632;2022-09-09T13:19:34;100048.41;;;27.23;52.52
31121;BME280;17770;45.966;13.632;2022-09-09T13:22:11;100033.47;;;27.22;52.49
31121;BME280;17770;45.966;13.632;2022-09-09T13:24:38;100031.50;;;27.24;51.92
31121;BME280;17770;45.966;13.632;2022-09-09T13:27:05;100023.56;;;27.24;52.31
31121;BME280;17770;45.966;13.632;2022-09-09T13:29:51;100014.81;;;27.24;51.97
31121;BME280;17770;45.966;13.632;2022-09-09T13:32:17;100012.97;;;27.24;51.97
31121;BME280;17770;45.966;13.632;2022-09-09T13:34:59;100013.13;;;27.23;51.78
31121;BME280;17770;45.966;13.632;2022-09-09T13:37:36;100017.59;;;27.22;51.78
31121;BME280;17770;45.966;13.632;2022-09-09T13:40:03;100025.53;;;27.22;51.93
31121;BME280;17770;45.966;13.632;2022-09-09T13:42:31;100023.72;;;27.23;51.85
31121;BME280;17770;45.966;13.632;2022-09-09T13:44:58;100039.63;;;27.23;51.65
31121;BME280;17770;45.966;13.632;2022-09-09T13:47:32;100053.84;;;27.22;51.65
31121;BME280;17770;45.966;13.632;2022-09-09T13:52:45;100045.06;;;27.21;52.00
31121;BME280;17770;45.966;13.632;2022-09-09T13:55:11;100039.78;;;27.21;51.32
31121;BME280;17770;45.966;13.632;2022-09-09T13:57:37;100038.78;;;27.22;51.83
31121;BME280;17770;45.966;13.632;2022-09-09T14:00:03;100030.03;;;27.22;51.42
31121;BME280;17770;45.966;13.632;2022-09-09T14:02:29;100039.78;;;27.21;51.32
31121;BME280;17770;45.966;13.632;2022-09-09T14:04:56;100049.38;;;27.22;51.65
31121;BME280;17770;45.966;13.632;2022-09-09T14:07:22;100047.56;;;27.23;51.56
31121;BME280;17770;45.966;13.632;2022-09-09T14:09:48;100035.31;;;27.22;51.54
31121;BME280;17770;45.966;13.632;2022-09-09T14:12:15;100036.28;;;27.21;51.43
31121;BME280;17770;45.966;13.632;2022-09-09T14:14:42;100042.41;;;27.21;51.22
31121;BME280;17770;45.966;13.632;2022-09-09T14:17:08;100048.56;;;27.22;51.41
31121;BME280;17770;45.966;13.632;2022-09-09T14:19:34;100037.97;;;27.22;51.54
31121;BME280;17770;45.966;13.632;2022-09-09T14:22:00;100028.34;;;27.21;51.33
31121;BME280;17770;45.966;13.632;2022-09-09T14:24:26;100026.38;;;27.23;51.66
31121;BME280;17770;45.966;13.632;2022-09-09T14:26:53;100023.72;;;27.23;51.62
31121;BME280;17770;45.966;13.632;2022-09-09T14:29:19;100016.63;;;27.23;51.29
31121;BME280;17770;45.966;13.632;2022-09-09T14:31:45;100025.53;;;27.22;51.46
31121;BME280;17770;45.966;13.632;2022-09-09T14:34:10;100036.00;;;27.24;51.44
31121;BME280;17770;45.966;13.632;2022-09-09T14:36:37;100036.97;;;27.23;51.46
31121;BME280;17770;45.966;13.632;2022-09-09T14:39:03;100063.44;;;27.23;51.06
31121;BME280;17770;45.966;13.632;2022-09-09T14:41:30;100057.31;;;27.22;51.39
31121;BME280;17770;45.966;13.632;2022-09-09T14:43:55;100058.16;;;27.23;51.58
31121;BME280;17770;45.966;13.632;2022-09-09T14:46:21;100053.19;;;27.20;51.29
31121;BME280;17770;45.966;13.632;2022-09-09T14:48:47;100045.06;;;27.21;51.68
31121;BME280;17770;45.966;13.632;2022-09-09T14:51:20;100060.28;;;27.19;51.45
31121;BME280;17770;45.966;13.632;2022-09-09T14:53:47;100062.94;;;27.19;51.39
31121;BME280;17770;45.966;13.632;2022-09-09T14:56:15;100071.72;;;27.20;51.63
31121;BME280;17770;45.966;13.632;2022-09-09T14:58:41;100074.53;;;27.18;51.14
31121;BME280;17770;45.966;13.632;2022-09-09T15:01:11;100076.50;;;27.16;51.33